createdAt,value
2022-12-08T00:04:26.009Z,99321.13
2022-12-08T00:19:29.836Z,99328.08
2022-12-08T00:34:33.382Z,99331.34
2022-12-08T00:49:36.717Z,99346.21
2022-12-08T01:04:40.166Z,99353.73
2022-12-08T01:19:43.498Z,99368.31
2022-12-08T01:34:46.840Z,99372.49
2022-12-08T01:49:50.131Z,99389.23
2022-12-08T02:04:53.411Z,99399.27
2022-12-08T02:20:55.246Z,99420.16
2022-12-08T02:36:28.148Z,99428.53
2022-12-08T02:51:31.283Z,99433.84
2022-12-08T03:06:55.747Z,99435.18
2022-12-08T03:22:03.654Z,99445.41
2022-12-08T03:37:06.846Z,99460.84
2022-12-08T03:52:10.010Z,99477.15
2022-12-08T04:07:13.371Z,99491.44
2022-12-08T04:22:16.498Z,99491.58
2022-12-08T04:37:19.620Z,99503.71
2022-12-08T04:52:23.065Z,99513.92
2022-12-08T05:07:26.248Z,99517.70
2022-12-08T05:22:29.515Z,99519.86
2022-12-08T05:37:32.660Z,99539.21
2022-12-08T05:52:35.841Z,99541.22
2022-12-08T06:07:39.804Z,99559.42
2022-12-08T06:22:43.157Z,99574.10
2022-12-08T06:37:46.340Z,99596.16
2022-12-08T06:53:02.729Z,99611.39
2022-12-08T07:08:09.486Z,99624.14
2022-12-08T07:23:12.784Z,99635.11
2022-12-08T07:38:15.941Z,99647.04
2022-12-08T07:53:19.052Z,99657.26
2022-12-08T08:08:22.432Z,99666.40
2022-12-08T08:23:25.835Z,99678.95
2022-12-08T08:38:29.489Z,99695.23
2022-12-08T08:53:32.629Z,99698.98
2022-12-08T09:08:36.018Z,99703.19
2022-12-08T09:23:40.183Z,99708.83
2022-12-08T09:38:43.316Z,99705.91
2022-12-08T09:53:52.541Z,99695.59
2022-12-08T10:09:23.385Z,99689.56
2022-12-08T10:24:33.922Z,99675.83
2022-12-08T10:39:40.328Z,99661.11
2022-12-08T10:54:43.582Z,99644.86
2022-12-08T11:09:51.035Z,99628.52
2022-12-08T11:25:03.694Z,99612.52
2022-12-08T11:40:30.913Z,99592.60
2022-12-08T11:55:39.450Z,99577.54
2022-12-08T12:10:56.399Z,99557.73
2022-12-08T12:26:02.851Z,99539.42
2022-12-08T12:41:08.379Z,99528.44
2022-12-08T12:56:13.076Z,99515.66
2022-12-08T13:11:16.659Z,99513.25
2022-12-08T13:26:25.295Z,99510.77
2022-12-08T13:41:43.780Z,99507.92
2022-12-08T13:57:10.598Z,99501.73
2022-12-08T14:12:21.958Z,99508.98
2022-12-08T14:27:27.421Z,99511.48
2022-12-08T14:42:30.753Z,99511.94
2022-12-08T14:57:35.790Z,99519.42
2022-12-08T15:12:39.348Z,99522.30
2022-12-08T15:27:50.242Z,99518.23
2022-12-08T15:42:54.129Z,99528.70
2022-12-08T15:58:51.653Z,99527.77
2022-12-08T16:13:56.876Z,99525.52
2022-12-08T16:29:01.591Z,99520.41
2022-12-08T16:44:06.291Z,99521.23
2022-12-08T16:59:09.437Z,99512.38
2022-12-08T17:14:13.736Z,99519.13
2022-12-08T17:29:18.898Z,99520.23
2022-12-08T17:44:22.348Z,99517.51
2022-12-08T17:59:27.691Z,99509.10
2022-12-08T18:14:30.933Z,99504.13
2022-12-08T18:29:34.517Z,99495.44
2022-12-08T18:44:38.251Z,99491.23
2022-12-08T18:59:41.502Z,99483.21
2022-12-08T19:14:44.905Z,99465.31
2022-12-08T19:29:48.043Z,99464.61
2022-12-08T19:44:54.311Z,99461.05
2022-12-08T19:59:57.781Z,99455.54
2022-12-08T20:15:01.248Z,99470.05
2022-12-08T20:30:05.011Z,99472.80
2022-12-08T20:45:09.963Z,99480.55
2022-12-08T21:00:13.996Z,99481.25
2022-12-08T21:15:17.644Z,99497.55
2022-12-08T21:30:21.476Z,99508.49
2022-12-08T21:45:24.830Z,99522.63
2022-12-08T22:00:28.639Z,99528.41
2022-12-08T22:15:33.136Z,99529.69
2022-12-08T22:30:39.183Z,99530.19
2022-12-08T22:45:42.923Z,99538.21
2022-12-08T23:00:47.420Z,99544.96
2022-12-08T23:15:50.825Z,99546.58
2022-12-08T23:30:54.057Z,99542.34
2022-12-08T23:45:57.631Z,99544.19
